sensor_id;sensor_type;location;lat;lon;timestamp;pressure;altitude;pressure_sealevel;temperature;humidity
16431;BME280;8325;49.284;7.238;2023-05-20T04:04:08;98903.59;;;12.02;77.10
16431;BME280;8325;49.284;7.238;2023-05-20T04:08:20;98902.50;;;11.96;77.36
16431;BME280;8325;49.284;7.238;2023-05-20T04:12:32;98909.75;;;12.09;76.85
16431;BME280;8325;49.284;7.238;2023-05-20T04:16:46;98905.22;;;12.03;77.28
16431;BME280;8325;49.284;7.238;2023-05-20T04:20:58;98899.47;;;12.08;77.74
16431;BME280;8325;49.284;7.238;2023-05-20T04:25:12;98901.91;;;12.09;77.62
16431;BME280;8325;49.284;7.238;2023-05-20T04:29:24;98903.03;;;12.15;77.56
16431;BME280;8325;49.284;7.238;2023-05-20T04:33:36;98900.69;;;12.20;77.48
16431;BME280;8325;49.284;7.238;2023-05-20T04:37:50;98898.69;;;12.22;77.55
16431;BME280;8325;49.284;7.238;2023-05-20T04:42:04;98891.34;;;12.26;77.54
16431;BME280;8325;49.284;7.238;2023-05-20T04:46:17;98897.53;;;12.25;77.77
16431;BME280;8325;49.284;7.238;2023-05-20T04:50:29;98889.03;;;12.46;76.93
16431;BME280;8325;49.284;7.238;2023-05-20T04:54:40;98895.78;;;12.40;76.85
16431;BME280;8325;49.284;7.238;2023-05-20T04:58:53;98886.69;;;12.51;76.90
16431;BME280;8325;49.284;7.238;2023-05-20T05:03:06;98883.84;;;12.37;76.77
16431;BME280;8325;49.284;7.238;2023-05-20T05:07:18;98882.31;;;12.43;77.35
16431;BME280;8325;49.284;7.238;2023-05-20T05:11:32;98870.41;;;12.55;76.74
16431;BME280;8325;49.284;7.238;2023-05-20T05:15:44;98881.47;;;12.65;76.52
16431;BME280;8325;49.284;7.238;2023-05-20T05:19:56;98875.59;;;12.63;76.88
16431;BME280;8325;49.284;7.238;2023-05-20T05:24:10;98859.44;;;12.75;76.58
16431;BME280;8325;49.284;7.238;2023-05-20T05:28:22;98862.22;;;12.88;75.71
16431;BME280;8325;49.284;7.238;2023-05-20T05:32:35;98852.38;;;14.70;68.64
16431;BME280;8325;49.284;7.238;2023-05-20T05:36:47;98843.84;;;17.03;59.15
16431;BME280;8325;49.284;7.238;2023-05-20T05:41:00;98835.19;;;18.55;54.26
16431;BME280;8325;49.284;7.238;2023-05-20T05:45:13;98840.81;;;19.50;50.93
16431;BME280;8325;49.284;7.238;2023-05-20T05:49:24;98846.94;;;19.81;50.39
16431;BME280;8325;49.284;7.238;2023-05-20T05:53:36;98855.34;;;20.20;48.97
16431;BME280;8325;49.284;7.238;2023-05-20T05:57:48;98859.97;;;20.48;47.77
16431;BME280;8325;49.284;7.238;2023-05-20T06:02:00;98844.56;;;21.09;45.91
16431;BME280;8325;49.284;7.238;2023-05-20T06:06:12;98837.00;;;21.41;44.55
16431;BME280;8325;49.284;7.238;2023-05-20T06:10:23;98838.56;;;21.02;45.75
16431;BME280;8325;49.284;7.238;2023-05-20T06:14:35;98839.84;;;20.99;46.07
16431;BME280;8325;49.284;7.238;2023-05-20T06:18:47;98840.56;;;21.47;44.58
16431;BME280;8325;49.284;7.238;2023-05-20T06:23:01;98832.50;;;20.78;46.79
16431;BME280;8325;49.284;7.238;2023-05-20T06:27:22;98835.81;;;20.03;49.41
16431;BME280;8325;49.284;7.238;2023-05-20T06:31:34;98817.41;;;20.78;48.27
16431;BME280;8325;49.284;7.238;2023-05-20T06:35:46;98830.19;;;19.69;50.24
16431;BME280;8325;49.284;7.238;2023-05-20T06:39:58;98814.13;;;19.03;51.98
16431;BME280;8325;49.284;7.238;2023-05-20T06:44:10;98814.81;;;19.29;52.11
16431;BME280;8325;49.284;7.238;2023-05-20T06:48:36;98807.34;;;18.71;55.59
16431;BME280;8325;49.284;7.238;2023-05-20T06:52:48;98812.28;;;18.24;56.75
16431;BME280;8325;49.284;7.238;2023-05-20T06:57:00;98811.53;;;18.16;57.06
16431;BME280;8325;49.284;7.238;2023-05-20T07:01:12;98807.69;;;18.12;58.01
16431;BME280;8325;49.284;7.238;2023-05-20T07:05:26;98810.56;;;18.11;57.89
16431;BME280;8325;49.284;7.238;2023-05-20T07:09:39;98802.31;;;18.44;57.64
16431;BME280;8325;49.284;7.238;2023-05-20T07:13:51;98802.44;;;17.49;60.39
16431;BME280;8325;49.284;7.238;2023-05-20T07:18:04;98816.09;;;17.33;61.13
16431;BME280;8325;49.284;7.238;2023-05-20T07:22:16;98807.31;;;17.07;63.15
16431;BME280;8325;49.284;7.238;2023-05-20T07:26:41;98820.88;;;16.26;65.72
16431;BME280;8325;49.284;7.238;2023-05-20T07:30:53;98812.75;;;16.14;67.61
16431;BME280;8325;49.284;7.238;2023-05-20T07:35:10;98805.44;;;16.09;68.07
16431;BME280;8325;49.284;7.238;2023-05-20T07:39:22;98807.47;;;16.01;69.51
16431;BME280;8325;49.284;7.238;2023-05-20T07:43:34;98802.41;;;16.13;68.74
16431;BME280;8325;49.284;7.238;2023-05-20T07:47:46;98802.81;;;16.03;69.88
16431;BME280;8325;49.284;7.238;2023-05-20T07:51:58;98800.38;;;15.95;69.96
16431;BME280;8325;49.284;7.238;2023-05-20T07:56:14;98794.50;;;16.19;68.98
16431;BME280;8325;49.284;7.238;2023-05-20T08:00:26;98797.53;;;16.16;69.92
16431;BME280;8325;49.284;7.238;2023-05-20T08:04:38;98800.56;;;16.13;69.85
16431;BME280;8325;49.284;7.238;2023-05-20T08:08:49;98791.66;;;15.94;71.34
16431;BME280;8325;49.284;7.238;2023-05-20T08:13:06;98785.59;;;16.20;69.78
16431;BME280;8325;49.284;7.238;2023-05-20T08:17:17;98794.50;;;16.06;69.72
16431;BME280;8325;49.284;7.238;2023-05-20T08:21:29;98803.63;;;15.97;70.74
16431;BME280;8325;49.284;7.238;2023-05-20T08:25:41;98796.53;;;15.91;71.36
16431;BME280;8325;49.284;7.238;2023-05-20T08:29:54;98801.38;;;15.67;72.59
16431;BME280;8325;49.284;7.238;2023-05-20T08:34:09;98797.31;;;15.71;72.76
16431;BME280;8325;49.284;7.238;2023-05-20T08:38:21;98805.22;;;15.71;72.78
16431;BME280;8325;49.284;7.238;2023-05-20T08:42:34;98803.16;;;15.66;73.49
16431;BME280;8325;49.284;7.238;2023-05-20T08:46:46;98800.78;;;15.78;73.25
16431;BME280;8325;49.284;7.238;2023-05-20T08:51:02;98805.44;;;15.90;71.81
16431;BME280;8325;49.284;7.238;2023-05-20T08:59:44;98801.78;;;15.84;73.26
16431;BME280;8325;49.284;7.238;2023-05-20T09:03:57;98786.41;;;16.14;72.30
16431;BME280;8325;49.284;7.238;2023-05-20T09:08:10;98782.31;;;16.31;71.36
16431;BME280;8325;49.284;7.238;2023-05-20T09:12:22;98779.81;;;16.70;70.17
16431;BME280;8325;49.284;7.238;2023-05-20T09:16:33;98782.44;;;16.76;69.82
16431;BME280;8325;49.284;7.238;2023-05-20T09:20:48;98770.41;;;16.94;69.60
16431;BME280;8325;49.284;7.238;2023-05-20T09:25:01;98767.53;;;17.02;69.06
16431;BME280;8325;49.284;7.238;2023-05-20T09:29:12;98769.66;;;17.57;68.52
16431;BME280;8325;49.284;7.238;2023-05-20T09:33:31;98761.88;;;17.68;67.78
16431;BME280;8325;49.284;7.238;2023-05-20T09:37:45;98757.88;;;17.59;68.37
16431;BME280;8325;49.284;7.238;2023-05-20T09:42:03;98739.06;;;17.74;66.28
16431;BME280;8325;49.284;7.238;2023-05-20T09:46:16;98747.31;;;18.09;67.31
16431;BME280;8325;49.284;7.238;2023-05-20T09:50:28;98734.72;;;18.11;67.32
16431;BME280;8325;49.284;7.238;2023-05-20T09:54:41;98736.00;;;18.02;67.21
16431;BME280;8325;49.284;7.238;2023-05-20T09:58:56;98717.47;;;18.27;67.30
16431;BME280;8325;49.284;7.238;2023-05-20T10:03:09;98731.13;;;18.43;66.72
16431;BME280;8325;49.284;7.238;2023-05-20T10:07:37;98738.97;;;18.31;67.08
16431;BME280;8325;49.284;7.238;2023-05-20T10:20:48;98728.34;;;17.94;66.52
16431;BME280;8325;49.284;7.238;2023-05-20T10:25:03;98721.78;;;18.40;66.78
16431;BME280;8325;49.284;7.238;2023-05-20T10:29:18;98726.19;;;18.64;65.39
16431;BME280;8325;49.284;7.238;2023-05-20T10:33:41;98719.59;;;18.55;64.33
16431;BME280;8325;49.284;7.238;2023-05-20T10:37:54;98706.53;;;18.60;65.24
16431;BME280;8325;49.284;7.238;2023-05-20T10:42:26;98707.47;;;18.66;65.19
16431;BME280;8325;49.284;7.238;2023-05-20T10:46:39;98716.75;;;18.57;64.12
16431;BME280;8325;49.284;7.238;2023-05-20T10:51:13;98709.63;;;18.76;64.78
16431;BME280;8325;49.284;7.238;2023-05-20T10:55:33;98707.88;;;19.00;64.92
16431;BME280;8325;49.284;7.238;2023-05-20T10:59:50;98702.91;;;19.22;63.70
16431;BME280;8325;49.284;7.238;2023-05-20T11:04:03;98695.19;;;19.32;64.03
16431;BME280;8325;49.284;7.238;2023-05-20T11:08:15;98685.31;;;19.27;64.30
16431;BME280;8325;49.284;7.238;2023-05-20T11:12:39;98688.09;;;19.44;61.62
16431;BME280;8325;49.284;7.238;2023-05-20T11:16:51;98686.06;;;19.58;62.00
16431;BME280;8325;49.284;7.238;2023-05-20T11:21:07;98691.78;;;19.01;63.43
16431;BME280;8325;49.284;7.238;2023-05-20T11:25:20;98690.88;;;18.77;63.85
16431;BME280;8325;49.284;7.238;2023-05-20T11:29:34;98691.38;;;18.68;64.33
16431;BME280;8325;49.284;7.238;2023-05-20T11:33:45;98678.31;;;18.73;65.22
16431;BME280;8325;49.284;7.238;2023-05-20T11:38:04;98673.59;;;19.05;63.47
16431;BME280;8325;49.284;7.238;2023-05-20T11:42:17;98675.38;;;19.23;63.52
16431;BME280;8325;49.284;7.238;2023-05-20T11:46:29;98688.16;;;19.26;62.96
16431;BME280;8325;49.284;7.238;2023-05-20T11:50:42;98667.38;;;19.53;62.04
16431;BME280;8325;49.284;7.238;2023-05-20T11:54:54;98668.41;;;19.40;63.17
16431;BME280;8325;49.284;7.238;2023-05-20T11:59:08;98660.94;;;19.72;62.23
16431;BME280;8325;49.284;7.238;2023-05-20T12:03:20;98655.06;;;19.82;63.10
16431;BME280;8325;49.284;7.238;2023-05-20T12:07:33;98665.09;;;19.68;63.10
16431;BME280;8325;49.284;7.238;2023-05-20T12:11:44;98649.69;;;19.77;61.33
16431;BME280;8325;49.284;7.238;2023-05-20T12:15:56;98629.03;;;20.03;61.41
16431;BME280;8325;49.284;7.238;2023-05-20T12:20:08;98630.88;;;19.90;61.45
16431;BME280;8325;49.284;7.238;2023-05-20T12:24:20;98621.50;;;20.23;58.84
16431;BME280;8325;49.284;7.238;2023-05-20T12:28:32;98630.84;;;20.14;59.93
16431;BME280;8325;49.284;7.238;2023-05-20T12:32:44;98611.75;;;19.88;59.38
16431;BME280;8325;49.284;7.238;2023-05-20T12:36:56;98611.84;;;19.93;59.61
16431;BME280;8325;49.284;7.238;2023-05-20T12:41:07;98613.47;;;19.94;59.77
16431;BME280;8325;49.284;7.238;2023-05-20T12:45:19;98619.50;;;20.30;59.33
16431;BME280;8325;49.284;7.238;2023-05-20T12:49:31;98609.84;;;20.64;57.08
16431;BME280;8325;49.284;7.238;2023-05-20T12:53:42;98617.50;;;20.37;58.13
16431;BME280;8325;49.284;7.238;2023-05-20T12:57:54;98615.91;;;20.36;57.32
16431;BME280;8325;49.284;7.238;2023-05-20T13:02:06;98611.66;;;20.35;56.50
16431;BME280;8325;49.284;7.238;2023-05-20T13:06:18;98604.84;;;20.68;55.92
16431;BME280;8325;49.284;7.238;2023-05-20T13:10:29;98613.25;;;20.77;55.75
16431;BME280;8325;49.284;7.238;2023-05-20T13:14:41;98608.72;;;20.60;56.40
16431;BME280;8325;49.284;7.238;2023-05-20T13:18:55;98617.38;;;20.56;55.11
16431;BME280;8325;49.284;7.238;2023-05-20T13:23:06;98602.84;;;20.46;57.01
16431;BME280;8325;49.284;7.238;2023-05-20T13:27:18;98627.41;;;20.82;55.88
16431;BME280;8325;49.284;7.238;2023-05-20T13:31:30;98611.91;;;20.62;56.97
16431;BME280;8325;49.284;7.238;2023-05-20T13:35:42;98611.06;;;20.33;57.09
16431;BME280;8325;49.284;7.238;2023-05-20T13:39:53;98605.41;;;20.41;57.42
16431;BME280;8325;49.284;7.238;2023-05-20T13:44:05;98602.00;;;20.29;57.80
16431;BME280;8325;49.284;7.238;2023-05-20T13:48:17;98599.84;;;20.43;56.92
16431;BME280;8325;49.284;7.238;2023-05-20T13:52:28;98594.66;;;20.08;58.15
16431;BME280;8325;49.284;7.238;2023-05-20T13:56:40;98600.66;;;19.91;59.52
16431;BME280;8325;49.284;7.238;2023-05-20T14:00:52;98583.31;;;19.72;60.20
16431;BME280;8325;49.284;7.238;2023-05-20T14:05:05;98578.00;;;20.24;59.01
16431;BME280;8325;49.284;7.238;2023-05-20T14:09:18;98582.09;;;20.43;59.03
16431;BME280;8325;49.284;7.238;2023-05-20T14:13:29;98577.25;;;20.12;59.88
16431;BME280;8325;49.284;7.238;2023-05-20T14:17:41;98575.69;;;19.87;60.96
16431;BME280;8325;49.284;7.238;2023-05-20T14:21:53;98562.59;;;20.09;60.56
16431;BME280;8325;49.284;7.238;2023-05-20T14:26:05;98561.16;;;20.30;60.56
16431;BME280;8325;49.284;7.238;2023-05-20T14:30:18;98566.47;;;20.30;60.88
16431;BME280;8325;49.284;7.238;2023-05-20T14:34:30;98560.56;;;19.99;61.07
16431;BME280;8325;49.284;7.238;2023-05-20T14:38:42;98563.91;;;19.95;61.07
16431;BME280;8325;49.284;7.238;2023-05-20T14:42:53;98575.84;;;20.09;60.96
16431;BME280;8325;49.284;7.238;2023-05-20T14:47:05;98582.88;;;20.15;60.34
16431;BME280;8325;49.284;7.238;2023-05-20T14:51:17;98580.03;;;20.05;59.58
16431;BME280;8325;49.284;7.238;2023-05-20T14:55:28;98563.50;;;20.43;59.89
16431;BME280;8325;49.284;7.238;2023-05-20T14:59:40;98562.69;;;20.55;58.10
16431;BME280;8325;49.284;7.238;2023-05-20T15:03:52;98560.63;;;20.57;59.99
16431;BME280;8325;49.284;7.238;2023-05-20T15:08:04;98550.50;;;20.71;58.81
16431;BME280;8325;49.284;7.238;2023-05-20T15:12:16;98551.13;;;20.61;58.86
16431;BME280;8325;49.284;7.238;2023-05-20T15:16:27;98563.03;;;20.58;59.09
16431;BME280;8325;49.284;7.238;2023-05-20T15:20:39;98557.84;;;20.23;58.88
16431;BME280;8325;49.284;7.238;2023-05-20T15:24:51;98573.97;;;19.81;60.49
16431;BME280;8325;49.284;7.238;2023-05-20T15:29:03;98567.16;;;20.26;60.61
16431;BME280;8325;49.284;7.238;2023-05-20T15:33:14;98560.78;;;20.38;58.19
16431;BME280;8325;49.284;7.238;2023-05-20T15:37:26;98560.38;;;20.18;59.33
16431;BME280;8325;49.284;7.238;2023-05-20T15:41:38;98552.75;;;20.21;59.59
16431;BME280;8325;49.284;7.238;2023-05-20T15:45:52;98557.38;;;20.26;59.44
16431;BME280;8325;49.284;7.238;2023-05-20T15:50:05;98570.81;;;20.36;59.22
16431;BME280;8325;49.284;7.238;2023-05-20T15:54:19;98569.53;;;20.39;59.63
16431;BME280;8325;49.284;7.238;2023-05-20T15:58:31;98579.00;;;20.35;59.08
16431;BME280;8325;49.284;7.238;2023-05-20T16:02:43;98577.59;;;20.04;60.02
16431;BME280;8325;49.284;7.238;2023-05-20T16:06:55;98576.41;;;20.23;59.58
16431;BME280;8325;49.284;7.238;2023-05-20T16:11:06;98570.81;;;20.36;59.86
16431;BME280;8325;49.284;7.238;2023-05-20T16:15:18;98569.22;;;20.64;58.76
16431;BME280;8325;49.284;7.238;2023-05-20T16:19:30;98560.94;;;20.60;58.19
16431;BME280;8325;49.284;7.238;2023-05-20T16:23:42;98579.47;;;20.72;57.30
16431;BME280;8325;49.284;7.238;2023-05-20T16:27:53;98571.22;;;20.57;57.45
16431;BME280;8325;49.284;7.238;2023-05-20T16:32:05;98581.72;;;20.23;59.48
16431;BME280;8325;49.284;7.238;2023-05-20T16:36:17;98569.00;;;20.25;59.84
16431;BME280;8325;49.284;7.238;2023-05-20T16:40:28;98568.28;;;20.41;59.89
16431;BME280;8325;49.284;7.238;2023-05-20T16:44:40;98558.59;;;20.35;59.09
16431;BME280;8325;49.284;7.238;2023-05-20T16:48:52;98562.53;;;20.61;58.80
16431;BME280;8325;49.284;7.238;2023-05-20T16:53:03;98569.38;;;20.57;58.54
16431;BME280;8325;49.284;7.238;2023-05-20T16:57:15;98561.34;;;20.40;58.09
16431;BME280;8325;49.284;7.238;2023-05-20T17:01:27;98554.50;;;20.16;58.85
16431;BME280;8325;49.284;7.238;2023-05-20T17:05:42;98567.75;;;20.16;60.04
16431;BME280;8325;49.284;7.238;2023-05-20T17:09:54;98564.78;;;20.12;60.92
16431;BME280;8325;49.284;7.238;2023-05-20T17:14:06;98563.03;;;20.18;60.59
16431;BME280;8325;49.284;7.238;2023-05-20T17:18:17;98566.66;;;20.00;60.86
16431;BME280;8325;49.284;7.238;2023-05-20T17:22:29;98575.00;;;19.80;61.47
16431;BME280;8325;49.284;7.238;2023-05-20T17:26:41;98578.78;;;19.61;61.24
16431;BME280;8325;49.284;7.238;2023-05-20T17:30:53;98579.16;;;19.52;62.02
16431;BME280;8325;49.284;7.238;2023-05-20T17:35:06;98591.00;;;19.50;62.42
16431;BME280;8325;49.284;7.238;2023-05-20T17:39:18;98588.47;;;19.43;63.67
16431;BME280;8325;49.284;7.238;2023-05-20T17:43:29;98601.38;;;19.28;63.46
16431;BME280;8325;49.284;7.238;2023-05-20T17:47:41;98602.28;;;19.22;63.63
16431;BME280;8325;49.284;7.238;2023-05-20T17:51:53;98616.28;;;19.11;63.91
16431;BME280;8325;49.284;7.238;2023-05-20T17:56:05;98628.09;;;18.84;64.20
16431;BME280;8325;49.284;7.238;2023-05-20T18:00:17;98614.47;;;18.81;64.33
16431;BME280;8325;49.284;7.238;2023-05-20T18:04:31;98621.63;;;18.80;64.74
16431;BME280;8325;49.284;7.238;2023-05-20T18:08:43;98620.13;;;18.73;64.79
16431;BME280;8325;49.284;7.238;2023-05-20T18:12:55;98616.84;;;18.71;65.02
16431;BME280;8325;49.284;7.238;2023-05-20T18:17:06;98612.81;;;18.68;65.80
16431;BME280;8325;49.284;7.238;2023-05-20T18:21:19;98617.03;;;18.57;66.16
16431;BME280;8325;49.284;7.238;2023-05-20T18:25:31;98612.19;;;18.54;66.48
16431;BME280;8325;49.284;7.238;2023-05-20T18:29:42;98613.44;;;18.52;66.26
16431;BME280;8325;49.284;7.238;2023-05-20T18:33:54;98625.78;;;18.58;66.60
16431;BME280;8325;49.284;7.238;2023-05-20T18:38:06;98613.97;;;18.42;67.64
16431;BME280;8325;49.284;7.238;2023-05-20T18:42:17;98610.72;;;18.40;68.23
16431;BME280;8325;49.284;7.238;2023-05-20T18:46:29;98606.41;;;18.27;68.87
16431;BME280;8325;49.284;7.238;2023-05-20T18:50:41;98602.81;;;18.22;69.17
16431;BME280;8325;49.284;7.238;2023-05-20T18:54:53;98607.47;;;18.08;70.06
16431;BME280;8325;49.284;7.238;2023-05-20T18:59:04;98608.56;;;18.00;70.53
16431;BME280;8325;49.284;7.238;2023-05-20T19:03:16;98603.16;;;17.95;70.56
16431;BME280;8325;49.284;7.238;2023-05-20T19:07:27;98613.75;;;17.88;71.01
16431;BME280;8325;49.284;7.238;2023-05-20T19:11:39;98606.16;;;17.80;71.64
16431;BME280;8325;49.284;7.238;2023-05-20T19:15:51;98606.34;;;17.79;71.82
16431;BME280;8325;49.284;7.238;2023-05-20T19:20:03;98611.91;;;17.70;72.64
16431;BME280;8325;49.284;7.238;2023-05-20T19:24:17;98620.03;;;17.69;72.73
16431;BME280;8325;49.284;7.238;2023-05-20T19:28:29;98619.28;;;17.62;73.43
16431;BME280;8325;49.284;7.238;2023-05-20T19:32:41;98608.78;;;17.55;73.43
16431;BME280;8325;49.284;7.238;2023-05-20T19:36:52;98616.97;;;17.47;74.73
16431;BME280;8325;49.284;7.238;2023-05-20T19:41:08;98625.78;;;17.41;75.20
16431;BME280;8325;49.284;7.238;2023-05-20T19:45:20;98622.38;;;17.34;75.87
16431;BME280;8325;49.284;7.238;2023-05-20T19:49:33;98627.91;;;17.25;75.80
16431;BME280;8325;49.284;7.238;2023-05-20T19:53:45;98629.16;;;17.23;75.72
16431;BME280;8325;49.284;7.238;2023-05-20T19:57:56;98636.69;;;17.19;75.53
16431;BME280;8325;49.284;7.238;2023-05-20T20:02:08;98629.03;;;17.11;75.93
16431;BME280;8325;49.284;7.238;2023-05-20T20:06:19;98627.06;;;17.07;76.14
16431;BME280;8325;49.284;7.238;2023-05-20T20:10:31;98630.31;;;17.02;75.82
16431;BME280;8325;49.284;7.238;2023-05-20T20:14:44;98619.63;;;16.97;76.27
16431;BME280;8325;49.284;7.238;2023-05-20T20:18:56;98616.78;;;16.92;76.31
16431;BME280;8325;49.284;7.238;2023-05-20T20:23:08;98628.81;;;16.88;76.82
16431;BME280;8325;49.284;7.238;2023-05-20T20:27:20;98628.00;;;16.80;77.47
16431;BME280;8325;49.284;7.238;2023-05-20T20:31:34;98622.75;;;16.74;77.72
16431;BME280;8325;49.284;7.238;2023-05-20T20:35:46;98624.59;;;16.73;77.71
16431;BME280;8325;49.284;7.238;2023-05-20T20:39:58;98630.69;;;16.67;78.20
16431;BME280;8325;49.284;7.238;2023-05-20T20:44:16;98628.16;;;16.54;78.82
16431;BME280;8325;49.284;7.238;2023-05-20T20:48:31;98617.03;;;16.45;79.23
16431;BME280;8325;49.284;7.238;2023-05-20T20:52:42;98609.91;;;16.46;79.12
16431;BME280;8325;49.284;7.238;2023-05-20T20:56:55;98609.53;;;16.42;78.88
16431;BME280;8325;49.284;7.238;2023-05-20T21:01:07;98609.53;;;16.42;78.81
16431;BME280;8325;49.284;7.238;2023-05-20T21:05:20;98604.06;;;16.37;79.12
16431;BME280;8325;49.284;7.238;2023-05-20T21:09:37;98595.38;;;16.37;79.47
16431;BME280;8325;49.284;7.238;2023-05-20T21:13:48;98597.88;;;16.18;80.42
16431;BME280;8325;49.284;7.238;2023-05-20T21:18:00;98602.75;;;16.15;80.70
16431;BME280;8325;49.284;7.238;2023-05-20T21:22:11;98591.19;;;16.16;80.62
16431;BME280;8325;49.284;7.238;2023-05-20T21:26:23;98596.28;;;16.04;80.86
